Time;durP1;ratioP1;P1;durP2;ratioP2;P2;SDS_P1;SDS_P2;PMS_P1;PMS_P2;Temp;Humidity;BMP_temperature;BMP_pressure;BME280_temperature;BME280_humidity;BME280_pressure;Samples;Min_cycle;Max_cycle;Signal;HPM_P1;HPM_P2
2022/01/21 00:01:01;;;;;;;19.50;3.47;;;3.50;99.90;;;;;;5065551;28;20160;-70
2022/01/21 00:03:27;;;;;;;22.50;3.08;;;3.50;99.90;;;;;;5049336;28;20052;-70
2022/01/21 00:05:53;;;;;;;16.85;2.65;;;3.60;99.90;;;;;;5054199;28;20069;-70
2022/01/21 00:08:19;;;;;;;16.05;3.33;;;3.70;99.90;;;;;;5057830;28;20044;-70
2022/01/21 00:10:45;;;;;;;19.70;3.00;;;3.70;99.90;;;;;;5049503;28;20051;-70
2022/01/21 00:13:22;;;;;;;12.10;3.25;;;3.80;99.90;;;;;;5052541;28;20446;-70
2022/01/21 00:15:48;;;;;;;12.70;2.50;;;3.90;99.90;;;;;;5051989;28;20076;-70
2022/01/21 00:18:14;;;;;;;10.63;2.40;;;3.90;99.90;;;;;;5046691;28;20496;-71
2022/01/21 00:31:36;;;;;;;12.27;2.67;;;3.80;99.90;;;;;;5049864;28;20037;-71
2022/01/21 00:34:02;;;;;;;12.38;3.10;;;3.70;99.90;;;;;;5048823;28;20040;-70
2022/01/21 00:36:28;;;;;;;17.25;2.90;;;3.70;99.90;;;;;;5049501;28;20029;-70
2022/01/21 00:38:55;;;;;;;10.65;2.50;;;3.60;99.90;;;;;;5056784;28;20045;-70
2022/01/21 00:41:25;;;;;;;17.23;3.88;;;3.60;99.90;;;;;;5041540;28;20448;-70
2022/01/21 00:43:51;;;;;;;16.40;3.05;;;3.60;99.90;;;;;;5047788;28;20053;-71
2022/01/21 00:46:19;;;;;;;17.65;2.97;;;3.60;99.90;;;;;;5048669;28;20048;-71
2022/01/21 00:48:44;;;;;;;13.18;3.53;;;3.50;99.90;;;;;;5048764;28;20605;-70
2022/01/21 00:51:10;;;;;;;14.45;2.67;;;3.40;99.90;;;;;;5049320;28;20076;-70
2022/01/21 00:53:36;;;;;;;16.80;2.63;;;3.40;99.90;;;;;;5048775;28;20037;-70
2022/01/21 00:56:02;;;;;;;11.35;2.53;;;3.30;99.90;;;;;;5048513;28;20468;-70
2022/01/21 00:58:27;;;;;;;21.13;3.20;;;3.20;99.90;;;;;;5052877;28;20453;-70
2022/01/21 01:00:53;;;;;;;18.10;2.97;;;3.20;99.90;;;;;;5057928;28;20237;-71
2022/01/21 01:03:19;;;;;;;14.80;2.25;;;3.10;99.90;;;;;;5070523;28;20053;-70
2022/01/21 01:05:52;;;;;;;16.40;3.00;;;3.10;99.90;;;;;;5049448;28;20040;-70
2022/01/21 01:08:19;;;;;;;22.40;3.75;;;3.00;99.90;;;;;;5047922;28;20048;-70
2022/01/21 01:11:00;;;;;;;19.33;2.78;;;3.10;99.90;;;;;;5048670;28;20045;-70
2022/01/21 01:21:46;;;;;;;13.95;2.58;;;3.30;99.90;;;;;;5048498;28;20045;-70
2022/01/21 01:29:26;;;;;;;17.10;3.50;;;3.50;99.90;;;;;;5039348;28;20045;-70
2022/01/21 01:31:52;;;;;;;13.63;3.33;;;3.50;99.90;;;;;;5046456;28;20320;-69
2022/01/21 01:34:18;;;;;;;14.45;2.20;;;3.50;99.90;;;;;;5048214;28;20044;-69
2022/01/21 01:36:46;;;;;;;14.20;2.90;;;3.60;99.90;;;;;;5044784;28;20080;-69
2022/01/21 01:39:27;;;;;;;14.32;2.40;;;3.60;99.90;;;;;;5048199;28;20443;-69
2022/01/21 01:50:26;;;;;;;12.40;2.55;;;3.40;99.90;;;;;;5048409;28;20053;-69
2022/01/21 01:52:51;;;;;;;15.13;3.25;;;3.40;99.90;;;;;;5048427;28;20496;-70
2022/01/21 01:55:17;;;;;;;9.82;2.08;;;3.40;99.90;;;;;;5053906;28;20038;-69
2022/01/21 01:57:43;;;;;;;10.10;2.13;;;3.40;99.90;;;;;;5058604;28;20519;-69
2022/01/21 02:00:09;;;;;;;8.80;2.13;;;3.40;99.90;;;;;;5046546;28;20045;-70
2022/01/21 02:02:34;;;;;;;12.10;2.42;;;3.50;99.90;;;;;;5054907;28;20047;-69
2022/01/21 02:05:00;;;;;;;11.43;2.25;;;3.50;99.90;;;;;;5064471;28;20045;-69
2022/01/21 02:07:25;;;;;;;8.98;2.08;;;3.70;99.90;;;;;;5046840;28;20130;-69
2022/01/21 02:09:51;;;;;;;9.15;2.08;;;3.80;99.90;;;;;;5031598;28;20041;-70
2022/01/21 02:12:17;;;;;;;8.98;2.40;;;3.70;99.90;;;;;;5050904;28;20102;-70
2022/01/21 02:14:49;;;;;;;7.85;1.73;;;3.70;99.90;;;;;;5046598;28;20123;-69
2022/01/21 02:22:33;;;;;;;9.20;2.00;;;3.50;99.90;;;;;;5052877;28;20466;-69
2022/01/21 02:25:11;;;;;;;4.90;1.67;;;3.40;99.90;;;;;;5055147;28;20048;-70
2022/01/21 02:27:37;;;;;;;7.70;1.92;;;3.40;99.90;;;;;;5051225;28;20455;-70
2022/01/21 02:30:05;;;;;;;11.07;2.30;;;3.30;99.90;;;;;;5052302;28;20095;-70
2022/01/21 02:32:31;;;;;;;8.75;2.00;;;3.30;99.90;;;;;;5059693;28;20401;-69
2022/01/21 02:34:57;;;;;;;7.53;1.70;;;3.30;99.90;;;;;;5061298;28;20049;-69
2022/01/21 02:37:23;;;;;;;8.30;1.73;;;3.30;99.90;;;;;;5051820;28;20041;-69
2022/01/21 02:39:49;;;;;;;10.57;1.85;;;3.20;99.90;;;;;;5040330;28;20083;-69
2022/01/21 02:42:15;;;;;;;7.97;2.17;;;3.20;99.90;;;;;;5063878;28;20044;-68
2022/01/21 02:44:42;;;;;;;10.60;1.55;;;3.20;99.90;;;;;;5050936;28;20028;-69
2022/01/21 02:47:08;;;;;;;6.72;1.65;;;3.20;99.90;;;;;;5050045;28;20123;-69
2022/01/21 02:49:34;;;;;;;8.30;1.85;;;3.40;99.90;;;;;;5048908;28;20087;-69
2022/01/21 02:52:01;;;;;;;4.53;1.52;;;3.40;99.90;;;;;;5033665;28;20045;-69
2022/01/21 02:54:30;;;;;;;6.32;1.58;;;3.40;99.90;;;;;;5037176;28;20091;-69
2022/01/21 02:56:57;;;;;;;5.45;1.73;;;3.40;99.90;;;;;;5061030;28;20182;-69
2022/01/21 02:59:23;;;;;;;4.75;1.58;;;3.30;99.90;;;;;;5047524;28;20118;-68
2022/01/21 03:01:49;;;;;;;6.93;1.38;;;3.30;99.90;;;;;;5047170;28;20045;-69
2022/01/21 03:04:23;;;;;;;4.65;1.30;;;3.30;99.90;;;;;;5051643;28;20442;-69
2022/01/21 03:06:48;;;;;;;3.97;1.40;;;3.30;99.90;;;;;;5050562;28;20041;-69
2022/01/21 03:09:14;;;;;;;5.07;1.30;;;3.20;99.90;;;;;;5049859;28;20049;-68
2022/01/21 03:11:40;;;;;;;5.82;1.38;;;3.20;99.90;;;;;;5049141;28;20129;-70
2022/01/21 03:14:05;;;;;;;4.45;1.63;;;3.10;99.90;;;;;;5052987;28;20116;-69
2022/01/21 03:16:31;;;;;;;6.43;1.58;;;3.10;99.90;;;;;;5067496;28;20484;-68
2022/01/21 03:18:57;;;;;;;7.00;1.60;;;3.10;99.90;;;;;;5073365;28;20041;-68
2022/01/21 03:21:23;;;;;;;4.47;1.40;;;3.10;99.90;;;;;;5079373;28;20079;-68
2022/01/21 03:23:50;;;;;;;10.07;2.00;;;3.10;99.90;;;;;;5057073;28;20048;-69
2022/01/21 03:26:20;;;;;;;11.45;2.20;;;3.10;99.90;;;;;;5062856;28;20465;-69
2022/01/21 03:28:49;;;;;;;11.02;1.60;;;3.10;99.90;;;;;;5052300;28;20046;-69
2022/01/21 03:31:15;;;;;;;7.95;2.15;;;3.10;99.90;;;;;;5023600;28;20056;-69
2022/01/21 03:33:41;;;;;;;6.88;1.80;;;3.20;99.90;;;;;;5049816;28;20056;-69
2022/01/21 03:36:08;;;;;;;9.77;1.70;;;3.20;99.90;;;;;;5054755;28;20041;-69
2022/01/21 03:38:34;;;;;;;10.27;2.05;;;4.40;99.90;;;;;;5041604;28;20436;-69
2022/01/21 03:41:00;;;;;;;5.93;1.80;;;3.20;99.90;;;;;;5058138;28;20045;-69
2022/01/21 03:43:26;;;;;;;8.95;2.08;;;3.20;99.90;;;;;;5052104;28;20040;-70
2022/01/21 03:45:52;;;;;;;8.98;1.80;;;3.20;99.90;;;;;;5066134;28;20123;-69
2022/01/21 03:48:19;;;;;;;9.93;1.98;;;3.10;99.90;;;;;;5067640;28;20041;-69
2022/01/21 03:50:45;;;;;;;8.05;2.55;;;3.00;99.90;;;;;;5060518;28;20056;-69
2022/01/21 03:53:11;;;;;;;6.88;1.95;;;3.00;99.90;;;;;;5068451;28;20489;-69
2022/01/21 03:55:37;;;;;;;8.52;1.92;;;2.90;99.90;;;;;;5055330;28;20144;-69
2022/01/21 03:58:05;;;;;;;14.70;1.95;;;2.90;99.90;;;;;;5066687;28;20362;-69
2022/01/21 04:00:35;;;;;;;10.90;2.20;;;2.80;99.90;;;;;;5061818;28;20049;-68
2022/01/21 04:03:01;;;;;;;10.75;1.90;;;2.80;99.90;;;;;;5047201;28;20118;-69
2022/01/21 04:05:27;;;;;;;12.32;2.53;;;2.80;99.90;;;;;;5066907;28;20041;-69
2022/01/21 04:07:53;;;;;;;12.13;3.13;;;4.00;99.90;;;;;;5050147;28;20420;-69
2022/01/21 04:10:19;;;;;;;15.10;2.35;;;2.80;99.90;;;;;;5050002;28;20047;-69
2022/01/21 04:12:44;;;;;;;8.43;2.10;;;2.70;99.90;;;;;;5049828;28;20041;-69
2022/01/21 04:15:11;;;;;;;9.80;2.05;;;2.70;99.90;;;;;;5055147;28;20110;-69
2022/01/21 04:17:36;;;;;;;16.27;2.40;;;2.70;99.90;;;;;;5041979;28;20041;-69
2022/01/21 04:20:04;;;;;;;9.95;2.22;;;2.70;99.90;;;;;;5049498;28;20111;-70
2022/01/21 04:22:30;;;;;;;12.57;2.08;;;2.70;99.90;;;;;;5048690;28;20052;-69
2022/01/21 04:24:55;;;;;;;12.32;2.10;;;3.20;99.90;;;;;;5061120;28;20033;-69
2022/01/21 04:27:21;;;;;;;13.48;2.63;;;2.60;99.90;;;;;;5055419;28;20059;-69
2022/01/21 04:29:47;;;;;;;10.98;2.38;;;2.30;99.90;;;;;;5049503;28;20088;-69
2022/01/21 04:32:13;;;;;;;12.02;2.40;;;2.50;99.90;;;;;;5048658;28;20041;-70
2022/01/21 04:34:39;;;;;;;10.57;2.33;;;2.50;99.90;;;;;;5047781;28;20052;-69
2022/01/21 04:37:09;;;;;;;11.40;2.40;;;2.40;99.90;;;;;;5053516;28;20060;-69
2022/01/21 04:39:40;;;;;;;11.80;2.65;;;2.40;99.90;;;;;;5052876;28;20079;-69
2022/01/21 04:47:35;;;;;;;13.18;2.30;;;2.40;99.90;;;;;;5033214;28;20123;-69
2022/01/21 04:50:01;;;;;;;16.27;2.92;;;2.40;99.90;;;;;;5048919;28;20095;-69
2022/01/21 04:52:27;;;;;;;13.68;2.40;;;2.40;99.90;;;;;;5048914;28;20040;-69
2022/01/21 04:54:53;;;;;;;13.40;2.03;;;2.40;99.90;;;;;;5052272;28;20048;-69
2022/01/21 04:57:19;;;;;;;17.23;2.45;;;2.50;99.90;;;;;;5047544;28;20048;-69
2022/01/21 04:59:46;;;;;;;11.93;2.00;;;2.50;99.90;;;;;;5052132;28;20051;-68
2022/01/21 05:02:11;;;;;;;11.90;2.47;;;2.60;99.90;;;;;;5060529;28;20076;-68
2022/01/21 05:04:38;;;;;;;11.25;2.78;;;2.70;99.90;;;;;;5049327;28;20489;-70
2022/01/21 05:07:07;;;;;;;15.52;2.42;;;2.90;99.90;;;;;;5048311;28;20116;-69
2022/01/21 05:09:35;;;;;;;6.65;2.25;;;2.90;99.90;;;;;;5081219;28;20040;-69
2022/01/21 05:12:08;;;;;;;11.10;2.30;;;3.00;99.90;;;;;;5049210;28;20068;-69
2022/01/21 05:14:48;;;;;;;8.25;2.10;;;3.00;99.90;;;;;;5046540;28;20059;-70
2022/01/21 05:17:15;;;;;;;10.38;2.10;;;3.00;99.90;;;;;;5031223;28;20040;-70
2022/01/21 05:19:41;;;;;;;9.75;1.77;;;3.00;99.90;;;;;;5032847;28;20041;-69
2022/01/21 05:22:07;;;;;;;14.27;1.90;;;3.00;99.90;;;;;;5052842;28;20046;-69
2022/01/21 05:24:33;;;;;;;13.57;2.15;;;3.00;99.90;;;;;;5063699;28;20506;-69
2022/01/21 05:27:01;;;;;;;11.30;2.10;;;3.00;99.90;;;;;;5047113;28;20132;-69
2022/01/21 05:29:29;;;;;;;11.73;2.60;;;3.00;99.90;;;;;;5047898;28;20464;-69
2022/01/21 05:31:54;;;;;;;13.48;2.17;;;2.90;99.90;;;;;;5049715;28;20133;-70
2022/01/21 05:34:20;;;;;;;12.80;3.22;;;3.00;99.90;;;;;;5050226;28;20469;-69
2022/01/21 05:36:46;;;;;;;15.80;2.10;;;3.00;99.90;;;;;;5049001;28;20033;-69
2022/01/21 05:39:14;;;;;;;17.55;2.40;;;3.00;99.90;;;;;;5053242;28;20055;-69
2022/01/21 05:41:44;;;;;;;13.82;2.20;;;3.00;99.90;;;;;;5080919;28;20043;-70
2022/01/21 05:44:17;;;;;;;10.30;2.17;;;2.90;99.90;;;;;;5051691;28;20063;-69
2022/01/21 05:46:55;;;;;;;11.50;1.85;;;2.90;99.90;;;;;;5048467;28;20397;-70
2022/01/21 05:49:22;;;;;;;10.98;2.00;;;3.10;99.90;;;;;;5045393;28;20175;-69
2022/01/21 05:51:48;;;;;;;10.95;2.40;;;3.10;99.90;;;;;;5056040;28;20033;-70
2022/01/21 05:54:14;;;;;;;13.63;2.33;;;3.10;99.90;;;;;;5063570;28;20109;-68
2022/01/21 05:56:40;;;;;;;9.65;2.20;;;3.10;99.90;;;;;;5050097;28;20120;-70
2022/01/21 05:59:07;;;;;;;11.23;2.25;;;3.20;99.90;;;;;;5050050;28;20045;-70
2022/01/21 06:01:34;;;;;;;13.45;2.35;;;3.30;99.90;;;;;;5060911;28;20052;-70
2022/01/21 06:04:01;;;;;;;14.60;2.13;;;3.30;99.90;;;;;;5054801;28;20043;-68
2022/01/21 06:06:26;;;;;;;6.10;2.13;;;3.40;99.90;;;;;;5055059;28;20167;-69
2022/01/21 06:08:52;;;;;;;13.15;1.95;;;3.50;99.90;;;;;;5053744;28;20139;-69
2022/01/21 06:11:18;;;;;;;12.98;2.80;;;3.60;99.90;;;;;;5062425;28;20048;-69
2022/01/21 06:13:49;;;;;;;12.02;2.35;;;3.60;99.90;;;;;;5054481;28;20512;-68
2022/01/21 06:16:16;;;;;;;10.32;1.85;;;3.50;99.90;;;;;;5056846;28;20401;-69
2022/01/21 06:18:42;;;;;;;14.20;3.25;;;3.50;99.90;;;;;;5050655;28;20049;-69
2022/01/21 06:21:08;;;;;;;13.55;2.00;;;3.50;99.90;;;;;;5052139;28;20047;-69
2022/01/21 06:23:33;;;;;;;13.48;2.40;;;3.50;99.90;;;;;;5051713;28;20053;-71
2022/01/21 06:25:59;;;;;;;12.35;2.28;;;3.50;99.90;;;;;;5050842;28;20079;-70
2022/01/21 06:28:25;;;;;;;10.65;1.65;;;3.50;99.90;;;;;;5066122;28;20067;-71
2022/01/21 06:30:51;;;;;;;10.73;2.17;;;3.40;99.90;;;;;;5066689;28;20088;-70
2022/01/21 06:33:17;;;;;;;13.02;2.35;;;3.40;99.90;;;;;;5057394;28;20071;-70
2022/01/21 06:35:42;;;;;;;11.05;2.53;;;3.90;99.90;;;;;;5051596;28;20049;-70
2022/01/21 06:38:08;;;;;;;9.35;2.70;;;3.30;99.90;;;;;;5050428;28;20057;-71
2022/01/21 06:40:34;;;;;;;12.68;2.20;;;3.30;99.90;;;;;;5065588;28;20123;-71
2022/01/21 06:43:02;;;;;;;6.35;1.67;;;3.30;99.90;;;;;;5057457;28;20152;-71
2022/01/21 06:45:29;;;;;;;9.75;2.30;;;3.20;99.90;;;;;;5051093;28;20053;-70
2022/01/21 06:48:02;;;;;;;10.95;2.30;;;3.20;99.90;;;;;;5052061;28;20052;-71
2022/01/21 06:50:30;;;;;;;12.30;2.63;;;3.20;99.90;;;;;;5050697;28;20053;-70
2022/01/21 06:52:55;;;;;;;19.95;2.92;;;3.20;99.90;;;;;;5050128;28;20052;-70
2022/01/21 06:55:21;;;;;;;12.93;2.25;;;3.10;99.90;;;;;;5053301;28;20064;-69
2022/01/21 06:57:47;;;;;;;11.43;2.10;;;3.10;99.90;;;;;;5019326;28;20116;-69
2022/01/21 07:00:18;;;;;;;11.65;2.67;;;3.10;99.90;;;;;;5049173;28;20485;-70
2022/01/21 07:02:44;;;;;;;8.77;2.17;;;3.10;99.90;;;;;;5057952;28;20048;-70
2022/01/21 07:05:10;;;;;;;10.43;3.22;;;4.30;99.90;;;;;;5060944;28;20048;-70
2022/01/21 07:07:35;;;;;;;14.13;2.50;;;3.00;99.90;;;;;;5055048;28;20140;-70
2022/01/21 07:10:04;;;;;;;9.60;2.17;;;3.00;99.90;;;;;;5051325;28;20044;-70
2022/01/21 07:12:29;;;;;;;15.63;3.38;;;2.90;99.90;;;;;;5068616;28;20044;-70
2022/01/21 07:14:55;;;;;;;20.80;4.00;;;2.90;99.90;;;;;;5052784;28;20043;-71
2022/01/21 07:17:21;;;;;;;13.77;2.40;;;2.90;99.90;;;;;;5055341;28;20037;-70
2022/01/21 07:19:47;;;;;;;18.05;2.58;;;2.80;99.90;;;;;;5034075;28;20374;-70
2022/01/21 07:22:13;;;;;;;19.30;3.58;;;2.80;99.90;;;;;;5071058;28;20048;-70
2022/01/21 07:24:39;;;;;;;11.15;2.65;;;2.80;99.90;;;;;;5053193;28;20546;-70
2022/01/21 07:27:05;;;;;;;14.98;2.80;;;2.80;99.90;;;;;;5049861;28;20068;-70
2022/01/21 07:29:30;;;;;;;18.63;3.20;;;2.90;99.90;;;;;;5050335;28;20052;-69
2022/01/21 07:31:56;;;;;;;17.02;3.38;;;3.20;99.90;;;;;;5049637;28;20041;-71
2022/01/21 07:34:22;;;;;;;14.45;3.58;;;3.00;99.90;;;;;;5048190;28;20045;-70
2022/01/21 07:36:48;;;;;;;17.05;3.38;;;3.00;99.90;;;;;;5065846;28;20397;-70
2022/01/21 07:39:14;;;;;;;15.55;2.90;;;2.90;99.90;;;;;;5069598;28;20037;-70
2022/01/21 07:41:40;;;;;;;18.75;3.95;;;2.90;99.90;;;;;;5069597;28;20518;-70
2022/01/21 07:44:05;;;;;;;15.30;2.97;;;2.90;99.90;;;;;;5069151;28;20071;-71
2022/01/21 07:46:31;;;;;;;18.02;2.70;;;3.90;99.90;;;;;;5068418;28;20040;-70
2022/01/21 07:48:59;;;;;;;13.10;3.17;;;2.90;99.90;;;;;;5066654;28;20062;-70
2022/01/21 07:51:25;;;;;;;15.32;2.88;;;3.00;99.90;;;;;;5070184;28;20048;-72
2022/01/21 07:53:51;;;;;;;11.32;2.55;;;3.10;99.90;;;;;;5069302;28;20472;-71
2022/01/21 07:56:16;;;;;;;17.65;3.10;;;3.20;99.90;;;;;;5050425;28;20111;-70
2022/01/21 07:58:42;;;;;;;17.35;3.13;;;3.20;99.90;;;;;;5056445;28;20049;-71
2022/01/21 08:01:08;;;;;;;14.70;2.83;;;3.30;99.90;;;;;;5048775;28;20079;-71
2022/01/21 08:03:33;;;;;;;14.60;2.63;;;3.40;99.90;;;;;;5060050;28;20102;-71
2022/01/21 08:05:59;;;;;;;17.52;2.80;;;3.50;99.90;;;;;;5085754;28;20113;-70
2022/01/21 08:08:26;;;;;;;20.38;2.95;;;3.50;99.90;;;;;;5061278;28;20056;-71
2022/01/21 08:10:52;;;;;;;25.50;3.33;;;3.50;99.90;;;;;;5067338;28;20048;-71
2022/01/21 08:13:18;;;;;;;14.68;3.40;;;3.50;99.90;;;;;;5058433;28;20187;-71
2022/01/21 08:15:43;;;;;;;18.92;2.80;;;3.40;99.90;;;;;;5039571;28;20450;-71
2022/01/21 08:18:09;;;;;;;15.75;3.05;;;3.50;99.90;;;;;;5065846;28;20059;-71
2022/01/21 08:20:35;;;;;;;25.70;3.10;;;3.40;99.90;;;;;;5065974;28;20113;-69
2022/01/21 08:23:01;;;;;;;15.50;3.05;;;3.40;99.90;;;;;;5050595;28;20033;-70
2022/01/21 08:25:27;;;;;;;16.55;3.10;;;3.40;99.90;;;;;;5048438;28;20037;-70
2022/01/21 08:27:53;;;;;;;26.23;3.63;;;3.50;99.90;;;;;;5047924;28;20048;-70
2022/01/21 08:30:19;;;;;;;20.10;3.83;;;3.50;99.90;;;;;;5047539;28;20424;-71
2022/01/21 08:32:44;;;;;;;12.50;2.85;;;3.60;99.90;;;;;;5046352;28;20049;-70
2022/01/21 08:35:11;;;;;;;20.50;3.78;;;3.70;99.90;;;;;;5049281;28;20044;-70
2022/01/21 08:37:37;;;;;;;13.77;3.03;;;4.30;99.90;;;;;;5063102;28;20186;-71
2022/01/21 08:40:04;;;;;;;20.70;3.67;;;4.00;99.90;;;;;;5047353;28;20124;-70
2022/01/21 08:42:29;;;;;;;16.48;3.70;;;4.20;99.90;;;;;;5047813;28;20392;-70
2022/01/21 08:44:55;;;;;;;22.33;3.45;;;4.50;99.90;;;;;;5046082;28;20110;-70
2022/01/21 08:47:22;;;;;;;18.75;3.28;;;4.70;99.90;;;;;;5048296;28;20119;-71
2022/01/21 08:49:49;;;;;;;16.80;3.30;;;4.90;99.90;;;;;;5046223;28;20053;-68
2022/01/21 08:52:20;;;;;;;15.13;3.55;;;5.20;99.90;;;;;;5064337;28;20040;-68
2022/01/21 08:54:47;;;;;;;14.50;3.10;;;5.30;99.90;;;;;;5067823;28;20041;-68
2022/01/21 08:57:15;;;;;;;15.75;3.47;;;5.30;99.90;;;;;;5055186;28;20064;-66
2022/01/21 08:59:41;;;;;;;19.15;3.25;;;5.40;99.90;;;;;;5045927;28;20040;-66
2022/01/21 09:02:07;;;;;;;16.88;3.38;;;5.30;99.90;;;;;;5048883;28;20045;-66
2022/01/21 09:04:33;;;;;;;19.20;4.28;;;5.30;99.90;;;;;;5049818;28;20072;-68
2022/01/21 09:06:59;;;;;;;20.40;4.25;;;5.20;99.90;;;;;;5048204;28;20081;-68
2022/01/21 09:09:25;;;;;;;18.65;3.80;;;5.20;99.90;;;;;;5047024;28;20052;-69
2022/01/21 09:11:53;;;;;;;18.10;3.63;;;5.20;99.90;;;;;;5046730;28;20036;-67
2022/01/21 09:14:18;;;;;;;18.17;3.33;;;5.20;99.90;;;;;;5049794;28;20106;-67
2022/01/21 09:16:44;;;;;;;17.67;3.35;;;5.20;99.90;;;;;;5067856;28;20032;-68
2022/01/21 09:19:11;;;;;;;17.77;3.67;;;5.20;99.90;;;;;;5066439;28;20052;-67
2022/01/21 09:21:41;;;;;;;17.63;3.33;;;5.20;99.90;;;;;;5047375;28;20057;-67
2022/01/21 09:24:06;;;;;;;19.67;3.90;;;5.30;99.90;;;;;;5053590;28;20048;-68
2022/01/21 09:26:33;;;;;;;23.63;3.42;;;5.30;99.90;;;;;;5049748;28;20923;-67
2022/01/21 09:29:00;;;;;;;17.30;3.35;;;5.20;99.90;;;;;;5050281;28;20047;-68
2022/01/21 09:31:25;;;;;;;20.92;3.72;;;5.20;99.90;;;;;;5028784;28;20057;-68
2022/01/21 09:33:51;;;;;;;27.95;3.58;;;5.30;99.90;;;;;;5041627;28;20487;-67
2022/01/21 09:36:18;;;;;;;20.85;3.85;;;5.20;99.90;;;;;;5068294;28;20094;-68
2022/01/21 09:38:45;;;;;;;22.73;4.53;;;5.60;99.90;;;;;;5066240;28;20041;-67
2022/01/21 09:41:11;;;;;;;19.35;4.10;;;5.20;99.90;;;;;;5047559;28;20051;-68
2022/01/21 09:43:39;;;;;;;26.50;3.97;;;5.30;99.90;;;;;;5065533;28;20037;-67
2022/01/21 09:46:07;;;;;;;22.77;3.88;;;5.40;99.90;;;;;;5063215;28;20041;-68
2022/01/21 09:48:50;;;;;;;17.05;3.67;;;6.20;99.90;;;;;;5051282;28;20345;-67
2022/01/21 09:51:16;;;;;;;19.02;3.35;;;6.40;99.90;;;;;;5047105;28;20052;-67
2022/01/21 09:53:42;;;;;;;15.93;3.42;;;6.80;99.90;;;;;;5046739;28;20045;-68
2022/01/21 09:56:09;;;;;;;13.93;3.20;;;6.80;99.90;;;;;;5047494;28;20092;-67
2022/01/21 09:58:35;;;;;;;20.65;4.05;;;6.70;99.90;;;;;;5051267;28;20047;-67
2022/01/21 10:01:09;;;;;;;16.70;3.17;;;6.50;99.90;;;;;;5053649;28;20082;-67
2022/01/21 10:03:35;;;;;;;18.15;3.08;;;6.40;99.90;;;;;;5052164;28;20089;-67
2022/01/21 10:06:02;;;;;;;20.83;3.65;;;6.40;99.90;;;;;;5058098;28;20037;-67
2022/01/21 10:08:29;;;;;;;17.80;3.63;;;6.20;99.90;;;;;;5028957;28;20041;-67
2022/01/21 10:10:54;;;;;;;22.95;3.88;;;6.20;99.90;;;;;;5053382;28;20132;-67
2022/01/21 10:13:20;;;;;;;17.40;3.47;;;6.10;99.90;;;;;;5064301;28;20064;-67
2022/01/21 10:15:47;;;;;;;22.20;3.35;;;6.10;99.90;;;;;;5046605;28;20055;-67
2022/01/21 10:18:15;;;;;;;19.10;3.60;;;6.10;99.90;;;;;;5043493;28;20101;-66
2022/01/21 10:21:04;;;;;;;14.45;3.30;;;6.40;99.90;;;;;;5046818;28;20055;-67
2022/01/21 10:23:33;;;;;;;17.88;3.55;;;7.00;99.90;;;;;;5058841;28;20052;-67
2022/01/21 10:26:12;;;;;;;20.52;3.13;;;7.40;99.90;;;;;;5050382;28;20736;-67
2022/01/21 10:28:40;;;;;;;12.43;2.88;;;7.50;99.90;;;;;;5053295;28;20045;-67
2022/01/21 10:31:16;;;;;;;16.70;3.08;;;7.50;99.90;;;;;;5050464;28;20399;-66
2022/01/21 10:33:48;;;;;;;17.48;3.10;;;7.50;99.90;;;;;;5066881;28;20048;-66
2022/01/21 10:36:39;;;;;;;16.70;3.08;;;7.30;99.90;;;;;;5060556;28;20134;-66
2022/01/21 10:39:18;;;;;;;14.82;2.80;;;7.20;99.90;;;;;;5065000;28;20500;-66
2022/01/21 10:41:47;;;;;;;16.70;2.97;;;7.40;99.90;;;;;;5070184;28;20060;-68
2022/01/21 10:44:19;;;;;;;16.55;3.00;;;7.70;99.90;;;;;;5070548;28;20050;-68
2022/01/21 10:47:00;;;;;;;16.02;2.85;;;7.10;99.90;;;;;;5072656;28;20060;-69
2022/01/21 10:49:26;;;;;;;16.02;3.00;;;6.90;99.90;;;;;;5068317;28;20512;-68
2022/01/21 10:51:55;;;;;;;20.38;3.03;;;6.90;99.90;;;;;;5070600;28;20052;-68
2022/01/21 10:54:29;;;;;;;20.08;3.30;;;6.80;99.90;;;;;;5072908;28;20037;-66
2022/01/21 10:57:19;;;;;;;13.35;2.63;;;6.90;99.90;;;;;;5056843;28;20096;-67
2022/01/21 10:59:59;;;;;;;26.60;3.30;;;7.20;99.90;;;;;;5049838;28;20053;-66
2022/01/21 11:02:33;;;;;;;13.25;2.67;;;7.40;99.90;;;;;;5050888;28;20049;-67
2022/01/21 11:05:01;;;;;;;14.88;3.75;;;7.50;99.90;;;;;;5065364;28;20123;-67
2022/01/21 11:07:50;;;;;;;16.08;2.80;;;7.50;99.90;;;;;;5056240;28;20041;-67
2022/01/21 11:10:35;;;;;;;18.35;2.85;;;7.90;99.90;;;;;;5030480;28;20045;-68
2022/01/21 11:13:20;;;;;;;12.98;2.75;;;7.60;99.90;;;;;;5029355;28;20413;-68
2022/01/21 11:15:55;;;;;;;16.17;2.53;;;7.60;99.90;;;;;;5030823;28;20057;-68
2022/01/21 11:18:22;;;;;;;14.73;2.83;;;8.10;99.90;;;;;;5028021;28;20061;-68
2022/01/21 11:21:04;;;;;;;14.85;3.10;;;9.50;99.90;;;;;;5030623;28;20045;-68
2022/01/21 11:23:32;;;;;;;14.88;2.70;;;10.70;99.90;;;;;;5029751;28;20053;-69
2022/01/21 11:26:01;;;;;;;16.52;2.95;;;10.80;99.90;;;;;;5011107;28;20062;-67
2022/01/21 11:28:50;;;;;;;24.58;3.45;;;10.60;99.90;;;;;;5030355;28;20092;-66
2022/01/21 11:31:19;;;;;;;15.05;3.22;;;10.30;99.90;;;;;;5033566;28;20168;-68
2022/01/21 11:33:46;;;;;;;14.10;2.80;;;10.10;99.90;;;;;;5029595;28;20075;-66
2022/01/21 11:36:12;;;;;;;9.15;2.40;;;10.00;99.90;;;;;;5047877;28;20046;-67
2022/01/21 11:38:40;;;;;;;13.93;2.55;;;10.20;99.90;;;;;;5029112;28;20191;-67
2022/01/21 11:41:08;;;;;;;12.82;2.45;;;9.90;99.90;;;;;;5029710;28;20096;-67
2022/01/21 11:43:35;;;;;;;14.50;2.55;;;9.60;99.90;;;;;;5029374;28;20484;-69
2022/01/21 11:46:26;;;;;;;17.42;2.78;;;9.30;99.90;;;;;;5032431;28;20394;-67
2022/01/21 11:48:57;;;;;;;14.80;2.70;;;9.30;99.90;;;;;;5020457;28;20045;-66
2022/01/21 11:51:27;;;;;;;9.68;2.60;;;9.10;99.90;;;;;;5049777;28;20056;-67
2022/01/21 11:54:08;;;;;;;19.63;2.60;;;8.90;99.90;;;;;;5028121;28;20083;-67
2022/01/21 11:56:47;;;;;;;13.65;2.45;;;8.80;99.90;;;;;;5029250;28;20183;-68
2022/01/21 11:59:32;;;;;;;16.67;3.05;;;8.50;99.90;;;;;;5027944;28;20413;-68
2022/01/21 12:01:58;;;;;;;13.80;2.72;;;8.40;99.90;;;;;;5027840;28;20069;-67
2022/01/21 12:04:30;;;;;;;11.35;2.25;;;8.30;99.90;;;;;;5029033;28;20045;-67
2022/01/21 12:06:57;;;;;;;12.98;2.42;;;8.20;99.90;;;;;;5028678;28;20045;-69
2022/01/21 12:09:54;;;;;;;16.52;2.45;;;8.20;99.90;;;;;;5037603;28;20040;-67
2022/01/21 12:12:20;;;;;;;13.48;2.53;;;8.00;99.90;;;;;;5053635;28;20052;-67
2022/01/21 12:14:51;;;;;;;11.68;2.53;;;8.00;99.90;;;;;;5056317;28;20032;-67
2022/01/21 12:17:37;;;;;;;12.23;2.88;;;7.90;99.90;;;;;;5037673;28;20044;-67
2022/01/21 12:20:07;;;;;;;9.15;1.80;;;7.90;99.90;;;;;;5045696;28;20044;-67
2022/01/21 12:22:38;;;;;;;11.38;2.10;;;8.00;99.90;;;;;;5050622;28;20116;-68
2022/01/21 12:25:12;;;;;;;13.38;2.67;;;8.00;99.90;;;;;;5030833;28;20044;-68
2022/01/21 12:27:40;;;;;;;13.43;2.78;;;8.00;99.90;;;;;;5048333;28;20052;-68
2022/01/21 12:30:23;;;;;;;21.42;3.10;;;9.20;99.90;;;;;;5056256;28;20040;-75
2022/01/21 12:32:56;;;;;;;11.65;2.20;;;8.00;99.90;;;;;;5043262;28;20041;-75
2022/01/21 12:35:22;;;;;;;8.65;1.92;;;8.00;99.90;;;;;;5044977;28;20498;-76
2022/01/21 12:39:06;;;;;;;11.80;2.63;;;8.00;99.90;;;;;;5044449;28;20056;-75
2022/01/21 12:41:16;;;;;;;12.05;2.00;;;7.90;99.90;;;;;;5044518;28;20057;-75
2022/01/21 12:43:49;;;;;;;12.90;3.05;;;8.00;99.90;;;;;;5041676;28;20098;-75
2022/01/21 12:46:18;;;;;;;19.95;2.95;;;7.30;99.90;;;;;;5049245;28;20056;-75
2022/01/21 12:48:48;;;;;;;16.20;3.00;;;7.90;99.90;;;;;;5063918;28;20351;-74
2022/01/21 12:51:21;;;;;;;17.42;2.65;;;8.50;99.90;;;;;;5062519;28;20040;-75
2022/01/21 12:56:50;;;;;;;13.70;2.55;;;7.80;99.90;;;;;;5041827;28;20423;-74
2022/01/21 12:59:25;;;;;;;13.55;3.55;;;7.80;99.90;;;;;;5043536;28;20053;-75
2022/01/21 13:01:52;;;;;;;17.58;3.10;;;7.80;99.90;;;;;;5057431;28;20048;-75
2022/01/21 13:04:33;;;;;;;17.48;3.00;;;7.80;99.90;;;;;;5062643;28;20156;-74
2022/01/21 13:07:07;;;;;;;14.43;2.50;;;7.80;99.90;;;;;;5053285;28;20041;-74
2022/01/21 13:09:54;;;;;;;15.63;2.25;;;7.80;99.90;;;;;;5024192;28;20045;-74
2022/01/21 13:12:23;;;;;;;15.90;2.60;;;7.90;99.90;;;;;;5035331;28;20048;-67
2022/01/21 13:14:55;;;;;;;13.07;2.58;;;8.40;99.90;;;;;;5051109;28;20041;-67
2022/01/21 13:17:21;;;;;;;14.70;2.85;;;7.80;99.90;;;;;;5050735;28;20446;-67
2022/01/21 13:19:48;;;;;;;18.63;2.92;;;7.80;99.90;;;;;;5046492;28;20178;-67
2022/01/21 13:22:35;;;;;;;20.95;3.22;;;7.80;99.90;;;;;;5030363;28;20435;-67
2022/01/21 13:25:06;;;;;;;14.80;3.40;;;7.70;99.90;;;;;;5039072;28;20119;-67
2022/01/21 13:27:34;;;;;;;16.95;3.17;;;7.70;99.90;;;;;;5060774;28;20140;-67
2022/01/21 13:30:04;;;;;;;18.35;2.92;;;7.70;99.90;;;;;;5049019;28;20045;-65
2022/01/21 13:32:29;;;;;;;20.02;2.85;;;7.80;99.90;;;;;;5046981;28;20061;-65
2022/01/21 13:35:21;;;;;;;16.30;2.85;;;7.70;99.90;;;;;;5066723;28;20056;-66
2022/01/21 13:38:07;;;;;;;19.10;2.95;;;7.60;99.90;;;;;;5061530;28;20468;-67
2022/01/21 13:40:37;;;;;;;23.48;4.88;;;7.70;99.90;;;;;;5048378;28;20049;-67
2022/01/21 13:43:16;;;;;;;15.82;2.88;;;7.50;99.90;;;;;;5047466;28;20442;-67